Columbine, CO

11:01 AM MST on December 09, 2016 (GMT -0700)
| | Change Station

Elev -9999 ft 0.00 °N, 0.00 °E | Updated 4 minutes ago

Clear
Clear
46 °F
Feels Like 44 °F
N
5
Wind Variable Wind from NW
Gusts mph

Today
High -- | Low -- °F
--% Chance of Precip.
Yesterday
High -- | Low -- °F
Precip. -- in
Pressure 30.24 in
Visibility 10.0 miles
Clouds Few 8000 ft
Scattered Clouds 22000 ft
Windchill 44 °F
Dew Point 43 °F
Humidity 87%
Rainfall --
Snow Depth Not available.
7:09 AM 4:36 PM
Waxing Gibbous, 76% visible
METAR KAPA 091753Z 12008KT 10SM FEW080 SCT220 08/M03 A3010 RMK AO2 SLP239 T00781033 10078 21128 51009
Pressure 30.24 in
Visibility 10.0 miles
Clouds Few 8000 ft
Scattered Clouds 22000 ft
Windchill 44 °F
Dew Point 43 °F
Humidity 87%
Rainfall --
Snow Depth Not available.
7:09 AM 4:36 PM
Waxing Gibbous, 76% visible
METAR KAPA 091753Z 12008KT 10SM FEW080 SCT220 08/M03 A3010 RMK AO2 SLP239 T00781033 10078 21128 51009

10-Day Weather Forecast

Almanac

Astronomy

Dec. 09, 2016 Rise Set
Actual Time
Civil Twilight
Nautical Twilight
Astronomical Twilight
Moon
Length of Visible Light
Length of Day
Tomorrow will be .
, % of the Moon is Illuminated

Today's Extremes

State Highs State Lows

Community

WunderPhotos

Upload Photos

1,956,499 photos uploaded!

WunderBlog® & News

Nearby

Air Quality

  Air Quality AQ Index Pollutant
Not available.

Snow Depth

Station Depth Elevation

Earthquake Activity

City Distance Mag. Time & Date
Minimum magnitude displayed is 2.5.

Coastal Water Temperatures

Place Temperature

Stations

Nearby Weather Stations

Station Location Temp. Windchill Dew Point Humidity Wind Precip. Elev Updated Type
                   

Watches & Warnings

There are currently no watches in effect.